Time;durP1;ratioP1;P1;durP2;ratioP2;P2;SDS_P1;SDS_P2;PMS_P1;PMS_P2;Temp;Humidity;BMP_temperature;BMP_pressure;BME280_temperature;BME280_humidity;BME280_pressure;Samples;Min_cycle;Max_cycle;Signal;HPM_P1;HPM_P2
2022/06/16 00:01:25;;;;;;;0.00;0.00;;;15.70;70.60;;;;;;5031068;28;20045;-70
2022/06/16 00:03:50;;;;;;;0.00;0.00;;;15.70;71.10;;;;;;5033510;28;20040;-70
2022/06/16 00:06:16;;;;;;;0.08;0.08;;;15.70;71.10;;;;;;5036573;28;20045;-70
2022/06/16 00:08:41;;;;;;;0.00;0.00;;;15.70;70.90;;;;;;5036622;28;20103;-70
2022/06/16 00:11:16;;;;;;;0.00;0.00;;;15.70;70.50;;;;;;5033414;28;20080;-70
2022/06/16 00:13:42;;;;;;;0.00;0.00;;;15.60;70.20;;;;;;5025915;28;20058;-70
2022/06/16 00:16:09;;;;;;;0.00;0.00;;;15.60;70.20;;;;;;5021022;28;20095;-70
2022/06/16 00:18:36;;;;;;;0.00;0.00;;;15.60;70.30;;;;;;5039911;28;20047;-70
2022/06/16 00:21:01;;;;;;;0.00;0.00;;;15.60;70.20;;;;;;5042411;28;20037;-70
2022/06/16 00:23:27;;;;;;;0.00;0.00;;;15.50;70.40;;;;;;5011716;28;20124;-70
2022/06/16 00:25:53;;;;;;;0.00;0.00;;;15.50;70.40;;;;;;5026648;28;20044;-70
2022/06/16 00:28:18;;;;;;;0.00;0.00;;;15.50;70.70;;;;;;5040760;28;20038;-70
2022/06/16 00:30:45;;;;;;;0.00;0.00;;;15.50;71.30;;;;;;5035068;28;20048;-70
2022/06/16 00:33:10;;;;;;;0.00;0.00;;;15.50;71.60;;;;;;5030611;28;20471;-70
2022/06/16 00:35:36;;;;;;;0.00;0.00;;;15.50;71.00;;;;;;5028928;28;20120;-70
2022/06/16 00:38:02;;;;;;;0.00;0.00;;;15.50;70.80;;;;;;5028527;28;20029;-70
2022/06/16 00:40:28;;;;;;;0.00;0.00;;;15.50;70.60;;;;;;5028960;28;20044;-71
2022/06/16 00:42:53;;;;;;;0.00;0.00;;;15.40;71.00;;;;;;5042665;28;20084;-70
2022/06/16 00:46:04;;;;;;;0.00;0.00;;;15.50;71.20;;;;;;5025834;28;20048;-70
2022/06/16 00:48:36;;;;;;;0.10;0.10;;;15.50;71.20;;;;;;5021463;28;20060;-71
2022/06/16 00:51:25;;;;;;;0.00;0.00;;;15.50;71.90;;;;;;5031819;28;20491;-70
2022/06/16 00:53:55;;;;;;;0.00;0.00;;;15.50;71.30;;;;;;5028073;28;20044;-70
2022/06/16 00:56:21;;;;;;;0.00;0.00;;;15.50;71.70;;;;;;5014703;28;20077;-70
2022/06/16 00:58:58;;;;;;;0.00;0.00;;;15.50;72.00;;;;;;5045807;28;20080;-70
2022/06/16 01:01:25;;;;;;;0.00;0.00;;;15.50;71.70;;;;;;5046015;28;20053;-70
2022/06/16 01:06:37;;;;;;;0.00;0.00;;;15.50;71.70;;;;;;5013549;28;20110;-70
2022/06/16 01:09:10;;;;;;;0.00;0.00;;;15.60;71.50;;;;;;5028749;28;20052;-70
2022/06/16 01:15:00;;;;;;;0.00;0.00;;;15.60;71.00;;;;;;5026612;28;20092;-70
2022/06/16 01:17:39;;;;;;;0.00;0.00;;;15.50;70.60;;;;;;5037219;28;20085;-70
2022/06/16 01:20:29;;;;;;;0.00;0.00;;;15.50;71.30;;;;;;5009047;28;20046;-70
2022/06/16 01:23:21;;;;;;;0.00;0.00;;;15.60;71.60;;;;;;5026707;28;20044;-70
2022/06/16 01:26:06;;;;;;;0.00;0.00;;;15.60;71.40;;;;;;5043248;28;20041;-69
2022/06/16 01:28:59;;;;;;;0.00;0.00;;;15.60;71.50;;;;;;5039248;28;20053;-70
2022/06/16 01:31:39;;;;;;;0.00;0.00;;;15.60;71.60;;;;;;5031818;28;20050;-70
2022/06/16 01:34:31;;;;;;;0.25;0.25;;;15.60;71.60;;;;;;5021381;28;20049;-70
2022/06/16 01:37:12;;;;;;;0.00;0.00;;;15.60;71.50;;;;;;5034569;28;20045;-71
2022/06/16 01:40:07;;;;;;;0.00;0.00;;;15.60;71.60;;;;;;5049816;28;20045;-70
2022/06/16 01:42:36;;;;;;;0.00;0.00;;;15.60;71.60;;;;;;5020874;28;20162;-71
2022/06/16 01:45:14;;;;;;;0.08;0.08;;;15.60;71.60;;;;;;5014781;28;20513;-70
2022/06/16 01:47:46;;;;;;;0.10;0.10;;;15.60;71.40;;;;;;5034183;28;20052;-70
2022/06/16 01:50:16;;;;;;;0.00;0.00;;;15.50;71.30;;;;;;5043954;28;20509;-70
2022/06/16 01:52:51;;;;;;;0.00;0.00;;;15.50;71.50;;;;;;5037874;28;20045;-70
2022/06/16 01:55:22;;;;;;;0.00;0.00;;;15.50;71.80;;;;;;5049736;28;20148;-70
2022/06/16 01:57:55;;;;;;;0.00;0.00;;;15.50;71.90;;;;;;5032306;28;20709;-70
2022/06/16 02:00:24;;;;;;;0.00;0.00;;;15.50;72.20;;;;;;5032042;28;20395;-70
2022/06/16 02:03:04;;;;;;;0.00;0.00;;;15.40;72.40;;;;;;5022921;28;20826;-70
2022/06/16 02:05:56;;;;;;;0.00;0.00;;;15.50;72.10;;;;;;5031216;28;20164;-70
2022/06/16 02:08:31;;;;;;;0.00;0.00;;;15.40;72.10;;;;;;5030405;28;20037;-70
2022/06/16 02:11:20;;;;;;;0.00;0.00;;;15.40;72.10;;;;;;5035391;28;20687;-70
2022/06/16 02:13:54;;;;;;;0.00;0.00;;;15.40;72.40;;;;;;5034596;28;20049;-70
2022/06/16 02:16:32;;;;;;;0.00;0.00;;;15.30;72.50;;;;;;5032300;28;20498;-70
2022/06/16 02:19:01;;;;;;;0.00;0.00;;;15.40;72.40;;;;;;5026455;28;20593;-70
2022/06/16 02:21:34;;;;;;;0.00;0.00;;;15.40;72.60;;;;;;5022693;28;20569;-70
2022/06/16 02:24:02;;;;;;;0.00;0.00;;;15.30;72.60;;;;;;5041655;28;20045;-70
2022/06/16 02:26:28;;;;;;;0.00;0.00;;;15.30;72.40;;;;;;5038917;28;20036;-70
2022/06/16 02:28:58;;;;;;;0.00;0.00;;;15.20;72.50;;;;;;5036437;28;20038;-70
2022/06/16 02:31:39;;;;;;;0.20;0.20;;;15.30;72.60;;;;;;5032069;28;20076;-70
2022/06/16 02:34:26;;;;;;;0.00;0.00;;;15.20;72.50;;;;;;5031862;28;20049;-70
2022/06/16 02:37:26;;;;;;;0.00;0.00;;;15.20;72.60;;;;;;5033256;28;20041;-70
2022/06/16 02:40:04;;;;;;;0.10;0.10;;;15.20;72.40;;;;;;5046634;28;20131;-70
2022/06/16 02:42:42;;;;;;;0.00;0.00;;;15.20;72.90;;;;;;5030538;28;20038;-70
2022/06/16 02:45:41;;;;;;;0.00;0.00;;;15.20;73.00;;;;;;5034940;28;20099;-71
2022/06/16 02:48:31;;;;;;;0.00;0.00;;;15.10;73.00;;;;;;5039367;28;20107;-70
2022/06/16 02:51:17;;;;;;;0.00;0.00;;;15.20;73.00;;;;;;5023413;28;20566;-71
2022/06/16 02:54:10;;;;;;;0.00;0.00;;;15.20;73.00;;;;;;5039779;28;20049;-70
2022/06/16 02:56:56;;;;;;;0.00;0.00;;;15.10;72.90;;;;;;5031006;28;20045;-70
2022/06/16 02:59:49;;;;;;;0.00;0.00;;;15.10;73.60;;;;;;5030170;28;20495;-70
2022/06/16 03:02:22;;;;;;;0.00;0.00;;;15.10;73.40;;;;;;5034460;28;20054;-70
2022/06/16 03:04:51;;;;;;;0.00;0.00;;;15.10;73.30;;;;;;5029565;28;20171;-70
2022/06/16 03:07:17;;;;;;;0.00;0.00;;;15.10;73.50;;;;;;5048688;28;20144;-70
2022/06/16 03:09:43;;;;;;;0.00;0.00;;;15.00;74.10;;;;;;5039016;28;20107;-70
2022/06/16 03:12:11;;;;;;;0.00;0.00;;;14.90;74.10;;;;;;5027111;28;20089;-70
2022/06/16 03:14:38;;;;;;;0.00;0.00;;;14.90;74.10;;;;;;5014555;28;20042;-71
2022/06/16 03:17:07;;;;;;;0.00;0.00;;;14.90;74.60;;;;;;5029113;28;20111;-70
2022/06/16 03:19:33;;;;;;;0.00;0.00;;;14.90;74.80;;;;;;5028421;28;20710;-69
2022/06/16 03:21:59;;;;;;;0.00;0.00;;;14.80;75.00;;;;;;5036001;28;20048;-70
2022/06/16 03:24:25;;;;;;;0.00;0.00;;;14.80;75.00;;;;;;5034174;28;20049;-69
2022/06/16 03:26:51;;;;;;;0.00;0.00;;;14.80;74.60;;;;;;5036754;28;20060;-69
2022/06/16 03:29:17;;;;;;;0.00;0.00;;;14.80;74.60;;;;;;5050074;28;20052;-70
2022/06/16 03:31:43;;;;;;;0.00;0.00;;;14.80;75.00;;;;;;5047390;28;20076;-70
2022/06/16 03:34:09;;;;;;;0.00;0.00;;;14.80;74.90;;;;;;5039820;28;20538;-70
2022/06/16 03:36:37;;;;;;;0.00;0.00;;;14.80;74.70;;;;;;5009377;28;20053;-70
2022/06/16 03:39:04;;;;;;;0.00;0.00;;;14.80;74.70;;;;;;5022974;28;20041;-70
2022/06/16 03:41:30;;;;;;;0.00;0.00;;;14.80;74.50;;;;;;5029775;28;20036;-70
2022/06/16 03:43:56;;;;;;;0.00;0.00;;;14.80;74.40;;;;;;5040674;28;20048;-70
2022/06/16 03:46:22;;;;;;;0.00;0.00;;;14.80;74.60;;;;;;5036366;28;20100;-70
2022/06/16 03:48:47;;;;;;;0.00;0.00;;;14.90;74.70;;;;;;5035506;28;20486;-70
2022/06/16 03:51:13;;;;;;;0.00;0.00;;;14.90;74.60;;;;;;5028789;28;20053;-70
2022/06/16 03:53:39;;;;;;;0.00;0.00;;;14.90;74.90;;;;;;5028592;28;20469;-70
2022/06/16 03:56:06;;;;;;;0.00;0.00;;;14.90;74.90;;;;;;5032101;28;20119;-70
2022/06/16 03:58:32;;;;;;;0.00;0.00;;;14.90;74.80;;;;;;5041825;28;20532;-70
2022/06/16 04:00:58;;;;;;;0.00;0.00;;;15.00;74.90;;;;;;5028598;28;20041;-70
2022/06/16 04:06:10;;;;;;;0.00;0.00;;;15.00;75.00;;;;;;5030048;28;20427;-69
2022/06/16 04:08:37;;;;;;;0.00;0.00;;;15.00;75.00;;;;;;5030999;28;20148;-71
2022/06/16 04:11:26;;;;;;;0.10;0.10;;;15.10;75.10;;;;;;5031010;28;20081;-71
2022/06/16 04:13:49;;;;;;;0.00;0.00;;;15.10;75.20;;;;;;5019989;28;20111;-71
2022/06/16 04:16:15;;;;;;;0.00;0.00;;;15.10;75.20;;;;;;5030646;28;20414;-71
2022/06/16 04:18:40;;;;;;;0.00;0.00;;;15.20;75.10;;;;;;5044734;28;20089;-71
2022/06/16 04:21:06;;;;;;;0.00;0.00;;;15.20;75.20;;;;;;5027207;28;20046;-72
2022/06/16 04:23:32;;;;;;;0.00;0.00;;;15.20;75.60;;;;;;5028417;28;20077;-71
2022/06/16 04:25:57;;;;;;;0.00;0.00;;;15.20;75.50;;;;;;5029120;28;20034;-71
2022/06/16 04:28:23;;;;;;;0.10;0.10;;;15.20;76.00;;;;;;5047004;28;20099;-71
2022/06/16 04:30:49;;;;;;;0.00;0.00;;;15.10;76.10;;;;;;5028492;28;20057;-72
2022/06/16 04:33:14;;;;;;;0.00;0.00;;;15.20;75.90;;;;;;5027848;28;20041;-72
2022/06/16 04:35:41;;;;;;;0.00;0.00;;;15.10;75.60;;;;;;5038201;28;20399;-72
2022/06/16 04:38:07;;;;;;;0.00;0.00;;;15.20;75.50;;;;;;5036761;28;20056;-71
2022/06/16 04:40:34;;;;;;;0.00;0.00;;;15.10;75.60;;;;;;5026905;28;20128;-71
2022/06/16 04:42:59;;;;;;;0.00;0.00;;;15.10;75.50;;;;;;5027960;28;20045;-72
2022/06/16 04:45:25;;;;;;;0.00;0.00;;;15.10;75.30;;;;;;5027922;28;20092;-71
2022/06/16 04:47:51;;;;;;;0.00;0.00;;;15.10;75.50;;;;;;5030803;28;20099;-72
2022/06/16 04:50:18;;;;;;;0.00;0.00;;;15.00;75.50;;;;;;5023205;28;20057;-71
2022/06/16 04:52:47;;;;;;;0.00;0.00;;;15.00;75.70;;;;;;5034002;28;20067;-70
2022/06/16 04:55:14;;;;;;;0.00;0.00;;;15.00;75.40;;;;;;5016414;28;20133;-70
2022/06/16 04:57:40;;;;;;;0.00;0.00;;;15.00;75.30;;;;;;5020981;28;20053;-70
2022/06/16 05:00:09;;;;;;;0.00;0.00;;;15.10;75.30;;;;;;5026090;28;20121;-70
2022/06/16 05:02:35;;;;;;;0.00;0.00;;;15.10;75.20;;;;;;5031146;28;20482;-70
2022/06/16 05:05:00;;;;;;;0.00;0.00;;;15.10;75.10;;;;;;5031476;28;20056;-70
2022/06/16 05:07:26;;;;;;;0.00;0.00;;;15.20;75.10;;;;;;5030485;28;20053;-70
2022/06/16 05:09:51;;;;;;;0.00;0.00;;;15.20;75.40;;;;;;5040088;28;20120;-70
2022/06/16 05:12:17;;;;;;;0.00;0.00;;;15.30;75.40;;;;;;5030605;28;20053;-70
2022/06/16 05:14:42;;;;;;;0.00;0.00;;;15.30;75.50;;;;;;5032635;28;20053;-70
2022/06/16 05:17:08;;;;;;;0.00;0.00;;;15.40;75.30;;;;;;5033330;28;20051;-70
2022/06/16 05:19:34;;;;;;;0.00;0.00;;;15.40;75.10;;;;;;5036320;28;20820;-71
2022/06/16 05:22:00;;;;;;;0.00;0.00;;;15.50;75.00;;;;;;5028131;28;20045;-71
2022/06/16 05:24:27;;;;;;;0.00;0.00;;;15.50;74.90;;;;;;5045392;28;20081;-71
2022/06/16 05:26:54;;;;;;;0.00;0.00;;;15.50;75.00;;;;;;5036989;28;20583;-70
2022/06/16 05:29:19;;;;;;;0.00;0.00;;;15.50;75.10;;;;;;5031373;28;20402;-70
2022/06/16 05:31:46;;;;;;;0.00;0.00;;;15.60;75.10;;;;;;5032023;28;20045;-70
2022/06/16 05:34:12;;;;;;;0.00;0.00;;;15.60;74.80;;;;;;5031511;28;20103;-70
2022/06/16 05:36:38;;;;;;;0.00;0.00;;;15.60;74.80;;;;;;5033910;28;20095;-70
2022/06/16 05:39:04;;;;;;;0.00;0.00;;;15.60;74.50;;;;;;5035035;28;20053;-70
2022/06/16 05:41:29;;;;;;;0.00;0.00;;;15.60;74.30;;;;;;5034776;28;20454;-70
2022/06/16 05:43:55;;;;;;;0.00;0.00;;;15.60;73.90;;;;;;5034815;28;20053;-70
2022/06/16 05:46:22;;;;;;;0.03;0.03;;;15.60;73.80;;;;;;5031900;28;20037;-70
2022/06/16 05:48:49;;;;;;;0.00;0.00;;;15.60;73.80;;;;;;5034877;28;20049;-69
2022/06/16 05:51:17;;;;;;;0.00;0.00;;;15.70;73.60;;;;;;5030907;28;20060;-69
2022/06/16 05:53:43;;;;;;;0.03;0.03;;;15.70;73.50;;;;;;5031229;28;20057;-69
2022/06/16 05:56:09;;;;;;;0.20;0.20;;;15.80;73.40;;;;;;5044879;28;20041;-69
2022/06/16 05:58:35;;;;;;;0.00;0.00;;;15.80;73.20;;;;;;5044849;28;20046;-69
2022/06/16 06:01:02;;;;;;;0.00;0.00;;;15.90;73.10;;;;;;5033379;28;20037;-70
2022/06/16 06:03:28;;;;;;;0.00;0.00;;;15.90;73.00;;;;;;5040048;28;20531;-72
2022/06/16 06:05:54;;;;;;;0.00;0.00;;;15.90;73.00;;;;;;5037523;28;20056;-72
2022/06/16 06:16:39;;;;;;;0.50;0.50;;;16.10;72.80;;;;;;5042516;28;20085;-71
2022/06/16 06:19:23;;;;;;;0.00;0.00;;;16.20;72.80;;;;;;5028507;28;20065;-70
2022/06/16 06:22:05;;;;;;;0.00;0.00;;;16.30;72.60;;;;;;5040983;28;20061;-70
2022/06/16 06:24:36;;;;;;;0.00;0.00;;;16.50;73.10;;;;;;5030710;28;20034;-70
2022/06/16 06:27:04;;;;;;;;;;;16.50;72.20;;;;;;5044858;28;20037;-70
2022/06/16 06:29:30;;;;;;;0.00;0.00;;;16.50;71.80;;;;;;5049921;28;19927;-70
2022/06/16 06:31:57;;;;;;;0.00;0.00;;;16.50;71.80;;;;;;5029812;28;20041;-69
2022/06/16 06:34:23;;;;;;;0.00;0.00;;;16.60;71.90;;;;;;5025859;28;20095;-70
2022/06/16 06:36:49;;;;;;;0.00;0.00;;;16.50;71.30;;;;;;5032259;28;20552;-70
2022/06/16 06:39:15;;;;;;;0.00;0.00;;;16.60;70.80;;;;;;5032778;28;20038;-72
2022/06/16 06:41:40;;;;;;;0.00;0.00;;;16.60;70.90;;;;;;5048906;28;20419;-70
2022/06/16 06:44:06;;;;;;;0.00;0.00;;;16.60;70.90;;;;;;5035203;28;20041;-72
2022/06/16 06:46:32;;;;;;;0.00;0.00;;;16.70;70.60;;;;;;5038327;28;20049;-71
2022/06/16 06:48:57;;;;;;;0.00;0.00;;;16.80;70.60;;;;;;5015905;28;20049;-71
2022/06/16 06:51:23;;;;;;;0.00;0.00;;;16.90;70.30;;;;;;5033563;28;20049;-71
2022/06/16 06:53:49;;;;;;;0.00;0.00;;;16.90;69.50;;;;;;5035143;28;20111;-71
2022/06/16 06:56:14;;;;;;;0.00;0.00;;;16.90;69.20;;;;;;5030242;28;20426;-71
2022/06/16 06:58:41;;;;;;;0.00;0.00;;;16.90;68.20;;;;;;5029583;28;20068;-71
2022/06/16 07:01:06;;;;;;;0.00;0.00;;;17.00;67.70;;;;;;5040048;28;20496;-72
2022/06/16 07:03:33;;;;;;;0.00;0.00;;;17.00;67.00;;;;;;5033885;28;20041;-71
2022/06/16 07:06:03;;;;;;;0.00;0.00;;;17.10;67.80;;;;;;5030193;28;20052;-72
2022/06/16 07:08:30;;;;;;;0.00;0.00;;;17.10;68.60;;;;;;5021357;28;20070;-72
2022/06/16 07:10:56;;;;;;;0.00;0.00;;;17.20;68.60;;;;;;5008051;28;20053;-72
2022/06/16 07:13:23;;;;;;;0.00;0.00;;;17.30;68.50;;;;;;5017175;28;20057;-72
2022/06/16 07:15:49;;;;;;;0.00;0.00;;;17.40;68.20;;;;;;5031591;28;20486;-72
2022/06/16 07:18:14;;;;;;;0.00;0.00;;;17.50;67.80;;;;;;5030803;28;20049;-72
2022/06/16 07:20:40;;;;;;;0.00;0.00;;;17.50;67.30;;;;;;5028806;28;20104;-72
2022/06/16 07:23:06;;;;;;;0.00;0.00;;;17.60;67.30;;;;;;5020615;28;20111;-72
2022/06/16 07:25:31;;;;;;;0.00;0.00;;;17.60;64.90;;;;;;5024043;28;20045;-72
2022/06/16 07:27:58;;;;;;;0.00;0.00;;;17.60;66.30;;;;;;5029470;28;20077;-74
2022/06/16 07:30:24;;;;;;;0.00;0.00;;;17.60;66.00;;;;;;5043592;28;20111;-72
2022/06/16 07:32:50;;;;;;;0.00;0.00;;;17.60;64.90;;;;;;5026153;28;20041;-72
2022/06/16 07:35:19;;;;;;;0.00;0.00;;;17.60;64.40;;;;;;5041035;28;20037;-69
2022/06/16 07:37:45;;;;;;;0.00;0.00;;;17.60;64.50;;;;;;5043589;28;20608;-68
2022/06/16 07:40:12;;;;;;;0.00;0.00;;;17.70;64.00;;;;;;5037075;28;20049;-67
2022/06/16 07:42:38;;;;;;;0.00;0.00;;;17.70;62.80;;;;;;5030211;28;20120;-67
2022/06/16 07:45:05;;;;;;;0.00;0.00;;;17.80;63.40;;;;;;5028732;28;20467;-67
2022/06/16 07:47:30;;;;;;;0.00;0.00;;;17.80;63.20;;;;;;5033779;28;20037;-67
2022/06/16 07:49:56;;;;;;;0.00;0.00;;;17.80;64.10;;;;;;5049050;28;20048;-68
2022/06/16 07:52:22;;;;;;;0.00;0.00;;;18.00;64.70;;;;;;5049329;28;20132;-69
2022/06/16 07:54:49;;;;;;;0.00;0.00;;;18.00;62.80;;;;;;5064728;28;20099;-68
2022/06/16 07:57:15;;;;;;;0.00;0.00;;;18.10;63.20;;;;;;5049050;28;20052;-70
2022/06/16 07:59:41;;;;;;;0.00;0.00;;;18.10;63.00;;;;;;5049009;28;20048;-69
2022/06/16 08:02:07;;;;;;;0.00;0.00;;;18.20;62.00;;;;;;5024850;28;20562;-69
2022/06/16 08:04:33;;;;;;;0.00;0.00;;;18.20;62.20;;;;;;5030855;28;20593;-73
2022/06/16 08:07:00;;;;;;;0.00;0.00;;;18.60;66.70;;;;;;5032623;28;20041;-73
2022/06/16 08:09:33;;;;;;;0.00;0.00;;;19.00;64.20;;;;;;5023020;28;20516;-72
2022/06/16 08:12:09;;;;;;;0.00;0.00;;;19.30;61.60;;;;;;5036306;28;20060;-70
2022/06/16 08:14:38;;;;;;;0.00;0.00;;;19.50;60.10;;;;;;5029668;28;20049;-71
2022/06/16 08:17:15;;;;;;;0.05;0.05;;;19.50;57.70;;;;;;5032541;28;20120;-70
2022/06/16 08:19:41;;;;;;;0.00;0.00;;;19.40;59.20;;;;;;5030175;28;20041;-70
2022/06/16 08:22:07;;;;;;;0.00;0.00;;;19.30;58.60;;;;;;5033415;28;20509;-70
2022/06/16 08:24:33;;;;;;;0.00;0.00;;;19.30;58.60;;;;;;5030261;28;20563;-70
2022/06/16 08:27:01;;;;;;;0.00;0.00;;;19.20;58.70;;;;;;5036128;28;20040;-69
2022/06/16 08:29:28;;;;;;;0.00;0.00;;;19.10;58.60;;;;;;5033839;28;20153;-69
2022/06/16 08:31:55;;;;;;;0.00;0.00;;;19.10;60.00;;;;;;5039079;28;20044;-70
2022/06/16 08:34:20;;;;;;;0.00;0.00;;;19.10;59.70;;;;;;5042799;28;20072;-70
2022/06/16 08:36:46;;;;;;;0.00;0.00;;;19.10;61.00;;;;;;5051268;28;20516;-70
2022/06/16 08:39:12;;;;;;;0.00;0.00;;;19.10;60.90;;;;;;5038740;28;20044;-69
2022/06/16 08:42:07;;;;;;;0.00;0.00;;;19.00;61.30;;;;;;5035117;28;20044;-71
2022/06/16 08:44:54;;;;;;;0.00;0.00;;;19.10;62.60;;;;;;5028740;28;20589;-69
2022/06/16 08:47:30;;;;;;;0.00;0.00;;;19.50;61.40;;;;;;5026752;28;20045;-69
2022/06/16 08:50:13;;;;;;;0.00;0.00;;;19.60;59.50;;;;;;5030493;28;20045;-68
2022/06/16 08:53:03;;;;;;;0.00;0.00;;;19.50;58.30;;;;;;5036752;28;20049;-67
2022/06/16 08:55:56;;;;;;;0.00;0.00;;;19.50;58.70;;;;;;5031054;28;20073;-70
2022/06/16 08:58:58;;;;;;;0.20;0.20;;;19.60;58.10;;;;;;5012730;28;20045;-69
2022/06/16 09:01:29;;;;;;;0.00;0.00;;;19.50;58.10;;;;;;5025558;28;20514;-71
2022/06/16 09:04:00;;;;;;;;;;;19.50;59.20;;;;;;5032236;28;20060;-71
2022/06/16 09:06:52;;;;;;;0.00;0.00;;;19.50;59.20;;;;;;5032153;28;20297;-67
2022/06/16 09:12:38;;;;;;;0.00;0.00;;;19.60;58.90;;;;;;5032318;28;20057;-63
2022/06/16 09:15:34;;;;;;;0.10;0.10;;;19.60;58.60;;;;;;5047919;28;20064;-64
2022/06/16 09:18:18;;;;;;;0.15;0.15;;;19.80;60.00;;;;;;5044472;28;20073;-64
2022/06/16 09:21:14;;;;;;;0.00;0.00;;;20.00;61.90;;;;;;5045550;28;20045;-65
2022/06/16 09:24:11;;;;;;;0.10;0.10;;;20.10;60.30;;;;;;5049766;28;20163;-64
2022/06/16 09:26:55;;;;;;;0.05;0.05;;;20.10;59.00;;;;;;5035388;28;20038;-62
2022/06/16 09:29:42;;;;;;;0.00;0.00;;;19.90;57.20;;;;;;5029034;28;20049;-68
2022/06/16 09:32:23;;;;;;;0.00;0.00;;;19.70;56.00;;;;;;5030680;28;20038;-69
2022/06/16 09:35:09;;;;;;;0.00;0.00;;;19.70;57.70;;;;;;5016324;28;20538;-69
2022/06/16 09:37:45;;;;;;;0.00;0.00;;;19.60;57.90;;;;;;5014156;28;20042;-67
2022/06/16 09:40:17;;;;;;;0.00;0.00;;;19.70;58.50;;;;;;5030165;28;20119;-68
2022/06/16 09:42:53;;;;;;;0.00;0.00;;;19.80;57.80;;;;;;5031030;28;20060;-68
2022/06/16 09:45:28;;;;;;;0.00;0.00;;;19.80;56.80;;;;;;5031184;28;20037;-67
2022/06/16 09:48:06;;;;;;;0.00;0.00;;;19.90;58.50;;;;;;5030294;28;20049;-67
2022/06/16 09:50:38;;;;;;;0.00;0.00;;;19.80;58.00;;;;;;5024924;28;20041;-67
2022/06/16 09:53:07;;;;;;;;;;;20.00;57.40;;;;;;5032265;28;20434;-67
2022/06/16 09:55:40;;;;;;;0.00;0.00;;;20.00;57.60;;;;;;5031086;28;19921;-68
2022/06/16 09:58:33;;;;;;;0.00;0.00;;;20.00;57.60;;;;;;5031228;28;20410;-68
2022/06/16 10:01:06;;;;;;;0.00;0.00;;;20.00;56.90;;;;;;5029934;28;20046;-70
2022/06/16 10:03:49;;;;;;;0.00;0.00;;;20.00;57.50;;;;;;5031177;28;20052;-68
2022/06/16 10:06:33;;;;;;;0.00;0.00;;;20.10;56.30;;;;;;5030893;28;20129;-69
2022/06/16 10:09:18;;;;;;;0.00;0.00;;;20.10;56.90;;;;;;5031180;28;20049;-69
2022/06/16 10:12:02;;;;;;;0.00;0.00;;;20.20;58.30;;;;;;5030590;28;20096;-69
2022/06/16 10:14:54;;;;;;;0.00;0.00;;;20.30;57.90;;;;;;5030660;28;20123;-70
2022/06/16 10:17:22;;;;;;;0.00;0.00;;;20.30;57.60;;;;;;5018486;28;20056;-68
2022/06/16 10:19:48;;;;;;;0.10;0.10;;;20.40;57.00;;;;;;5029087;28;20049;-68
2022/06/16 10:22:17;;;;;;;0.00;0.00;;;20.50;57.10;;;;;;5031035;28;20041;-68
2022/06/16 10:24:48;;;;;;;0.00;0.00;;;20.60;57.80;;;;;;5030394;28;20042;-68
2022/06/16 10:27:16;;;;;;;0.00;0.00;;;20.60;55.70;;;;;;5027369;28;20179;-67
2022/06/16 10:29:58;;;;;;;0.00;0.00;;;20.70;55.10;;;;;;5017915;28;20049;-68
2022/06/16 10:32:41;;;;;;;0.00;0.00;;;20.70;55.40;;;;;;5030112;28;20124;-68
2022/06/16 10:35:13;;;;;;;0.00;0.00;;;20.80;55.30;;;;;;5040001;28;20160;-68
2022/06/16 10:37:41;;;;;;;0.00;0.00;;;20.80;56.10;;;;;;5050374;28;20041;-68
2022/06/16 10:40:13;;;;;;;0.20;0.20;;;20.90;55.80;;;;;;5048040;28;20052;-68
2022/06/16 10:42:40;;;;;;;0.00;0.00;;;21.00;55.90;;;;;;5030241;28;20133;-68
2022/06/16 10:45:09;;;;;;;0.00;0.00;;;21.00;53.20;;;;;;5030094;28;20084;-69
2022/06/16 10:48:01;;;;;;;0.00;0.00;;;21.10;55.70;;;;;;5014316;28;20445;-69
2022/06/16 10:50:35;;;;;;;;;;;21.40;56.70;;;;;;5032679;28;20042;-67
2022/06/16 10:53:31;;;;;;;0.00;0.00;;;21.50;56.80;;;;;;5022832;28;19956;-68
2022/06/16 10:56:07;;;;;;;0.00;0.00;;;21.50;55.00;;;;;;5024128;28;20064;-68
2022/06/16 10:58:50;;;;;;;0.00;0.00;;;21.50;53.00;;;;;;5020804;28;20140;-68
2022/06/16 11:01:31;;;;;;;0.00;0.00;;;21.60;53.80;;;;;;5020052;28;20039;-68
2022/06/16 11:04:11;;;;;;;0.70;0.15;;;21.50;52.00;;;;;;5012947;28;20049;-68
2022/06/16 11:06:51;;;;;;;0.00;0.00;;;21.40;49.50;;;;;;5023989;28;20034;-68
2022/06/16 11:09:19;;;;;;;0.00;0.00;;;21.40;49.50;;;;;;5027915;28;20049;-68
2022/06/16 11:11:54;;;;;;;0.00;0.00;;;21.50;51.00;;;;;;5017826;28;20571;-67
2022/06/16 11:14:26;;;;;;;0.10;0.10;;;21.50;51.80;;;;;;5032622;28;20037;-68
2022/06/16 11:16:55;;;;;;;0.00;0.00;;;21.60;52.90;;;;;;5026796;28;20041;-67
2022/06/16 11:19:36;;;;;;;0.00;0.00;;;21.70;52.20;;;;;;5037559;28;20056;-67
2022/06/16 11:22:15;;;;;;;0.00;0.00;;;21.80;51.50;;;;;;5035527;28;20041;-68
2022/06/16 11:24:59;;;;;;;0.00;0.00;;;21.90;50.40;;;;;;5037327;28;20456;-68
2022/06/16 11:27:24;;;;;;;0.10;0.10;;;21.80;50.40;;;;;;5027279;28;20037;-68
2022/06/16 11:29:50;;;;;;;0.00;0.00;;;22.00;51.00;;;;;;5028116;28;20100;-68
2022/06/16 11:32:25;;;;;;;0.00;0.00;;;21.90;49.70;;;;;;5026656;28;20121;-68
2022/06/16 11:34:51;;;;;;;0.00;0.00;;;21.80;50.40;;;;;;5029785;28;20149;-68
2022/06/16 11:37:17;;;;;;;0.20;0.20;;;21.80;49.10;;;;;;5028157;28;20406;-68
2022/06/16 11:40:04;;;;;;;0.00;0.00;;;21.80;48.90;;;;;;5026920;28;20049;-68
2022/06/16 11:43:07;;;;;;;0.00;0.00;;;21.70;50.10;;;;;;5027698;28;20033;-68
2022/06/16 11:45:36;;;;;;;0.00;0.00;;;21.80;49.80;;;;;;5027977;28;20426;-68
2022/06/16 11:48:13;;;;;;;0.00;0.00;;;21.90;50.10;;;;;;5027918;28;20538;-69
2022/06/16 11:50:55;;;;;;;0.00;0.00;;;21.90;50.80;;;;;;5031360;28;20099;-70
2022/06/16 11:53:27;;;;;;;;;;;22.10;51.30;;;;;;5029751;28;20124;-68
2022/06/16 11:56:05;;;;;;;0.00;0.00;;;22.20;51.10;;;;;;5027498;28;19967;-67
2022/06/16 11:58:59;;;;;;;0.85;0.85;;;22.30;50.30;;;;;;5027796;28;20124;-69
2022/06/16 12:01:38;;;;;;;0.00;0.00;;;22.40;50.90;;;;;;5028230;28;20042;-67
2022/06/16 12:04:38;;;;;;;0.00;0.00;;;22.50;50.10;;;;;;5028076;28;20073;-67
2022/06/16 12:07:25;;;;;;;0.00;0.00;;;22.20;50.50;;;;;;5028680;28;20590;-68
2022/06/16 12:10:28;;;;;;;0.10;0.10;;;22.10;50.20;;;;;;5025951;28;20469;-67
2022/06/16 12:13:30;;;;;;;0.00;0.00;;;22.00;50.40;;;;;;5008429;28;20073;-67
2022/06/16 12:16:01;;;;;;;;;;;22.10;52.00;;;;;;5032086;28;20079;-67
2022/06/16 12:18:36;;;;;;;0.00;0.00;;;22.30;50.70;;;;;;5031340;28;20377;-67
2022/06/16 12:21:02;;;;;;;0.00;0.00;;;22.30;50.40;;;;;;5031999;28;20067;-68
2022/06/16 12:23:34;;;;;;;0.00;0.00;;;22.20;50.10;;;;;;5026017;28;20501;-67
2022/06/16 12:26:03;;;;;;;0.20;0.20;;;22.30;51.00;;;;;;5025936;28;20053;-69
2022/06/16 12:28:38;;;;;;;0.00;0.00;;;22.40;49.30;;;;;;5026792;28;20042;-67
2022/06/16 12:31:15;;;;;;;0.00;0.00;;;22.50;49.80;;;;;;5039205;28;20091;-68
2022/06/16 12:33:59;;;;;;;0.00;0.00;;;22.20;51.30;;;;;;5027067;28;20050;-69
2022/06/16 12:36:43;;;;;;;0.00;0.00;;;22.10;49.80;;;;;;5033762;28;20053;-68
2022/06/16 12:39:11;;;;;;;2.47;0.90;;;22.20;49.80;;;;;;5045709;28;20041;-67
2022/06/16 12:41:41;;;;;;;0.10;0.10;;;22.10;49.80;;;;;;5019100;28;20122;-69
2022/06/16 12:44:13;;;;;;;0.03;0.03;;;22.30;50.90;;;;;;5026277;28;20045;-67
2022/06/16 12:46:44;;;;;;;0.10;0.10;;;22.40;50.40;;;;;;5035056;28;20128;-67
2022/06/16 12:49:21;;;;;;;0.00;0.00;;;22.60;49.20;;;;;;5027852;28;20033;-67
2022/06/16 12:51:55;;;;;;;0.10;0.10;;;22.80;48.10;;;;;;5047072;28;20134;-68
2022/06/16 12:54:27;;;;;;;0.10;0.10;;;22.90;49.60;;;;;;5046120;28;20041;-68
2022/06/16 12:57:03;;;;;;;0.00;0.00;;;23.10;50.00;;;;;;5025562;28;20387;-67
2022/06/16 12:59:53;;;;;;;0.20;0.20;;;23.20;49.40;;;;;;5031044;28;20050;-68
2022/06/16 13:02:24;;;;;;;0.00;0.00;;;23.30;49.20;;;;;;5027155;28;20057;-69
2022/06/16 13:04:52;;;;;;;0.00;0.00;;;23.20;49.50;;;;;;5025665;28;20521;-68
2022/06/16 13:07:21;;;;;;;0.00;0.00;;;23.00;49.00;;;;;;5021828;28;20050;-69
2022/06/16 13:09:47;;;;;;;0.00;0.00;;;23.00;48.90;;;;;;5021751;28;20440;-68
2022/06/16 13:12:21;;;;;;;0.00;0.00;;;23.00;49.80;;;;;;5026399;28;20087;-68
2022/06/16 13:14:55;;;;;;;1.13;0.52;;;23.10;49.90;;;;;;5026779;28;20612;-68
2022/06/16 13:17:30;;;;;;;0.00;0.00;;;23.10;49.80;;;;;;5029308;28;20403;-68
2022/06/16 13:20:09;;;;;;;0.00;0.00;;;23.00;49.60;;;;;;5031164;28;20045;-69
2022/06/16 13:22:41;;;;;;;0.00;0.00;;;23.00;48.20;;;;;;5013157;28;20185;-69
2022/06/16 13:25:11;;;;;;;0.13;0.13;;;23.10;48.80;;;;;;5031564;28;20725;-69
2022/06/16 13:27:47;;;;;;;0.00;0.00;;;23.10;47.70;;;;;;5031318;28;20041;-69
2022/06/16 13:30:21;;;;;;;0.00;0.00;;;23.10;46.40;;;;;;5029950;28;20054;-69
2022/06/16 13:32:49;;;;;;;0.00;0.00;;;23.10;48.80;;;;;;5030882;28;20037;-68
2022/06/16 13:35:15;;;;;;;0.00;0.00;;;23.10;48.30;;;;;;5031094;28;20549;-69
2022/06/16 13:38:04;;;;;;;0.00;0.00;;;23.20;48.40;;;;;;5014339;28;20132;-68